QAK0013 MMUN-MUHA
Flight info
| Callsign | QAK0013 |
|---|---|
| Flight time | 0h 47m |
| Altitude | 35000 |
| Route | NUDAL1A NUDAL UR506 KALNO VETSI2A |
| Aircraft | A320/M-SDE3FGHIRWY/LB1 |
Departure
| Time | 2026-05-05 22:15 |
|---|---|
| Airport | Cancún International Airport (MMUN) |
Arrival
| Time | 2026-05-05 23:03 |
|---|---|
| Airport | José Martí International Airport (MUHA) |
| Time | Latitude | Longitude | Altitude | Speed | Heading |
|---|---|---|---|---|---|
| 2026-05-05 21:51 | 21.04736 | -86.88320 | 19 ft | 0 kts | 123° |
| 2026-05-05 22:07 | 21.04735 | -86.88319 | 29 ft | 0 kts | 123° |
| 2026-05-05 22:07 | 21.04744 | -86.88334 | 29 ft | 2 kts | 123° |
| 2026-05-05 22:07 | 21.04754 | -86.88349 | 29 ft | 2 kts | 123° |
| 2026-05-05 22:08 | 21.04763 | -86.88364 | 29 ft | 3 kts | 128° |
| 2026-05-05 22:08 | 21.04776 | -86.88377 | 29 ft | 3 kts | 165° |
| 2026-05-05 22:08 | 21.04794 | -86.88378 | 29 ft | 3 kts | 201° |
| 2026-05-05 22:08 | 21.04804 | -86.88373 | 29 ft | 0 kts | 220° |
| 2026-05-05 22:09 | 21.04796 | -86.88380 | 29 ft | 3 kts | 221° |
| 2026-05-05 22:10 | 21.04770 | -86.88406 | 29 ft | 5 kts | 223° |
| 2026-05-05 22:10 | 21.04743 | -86.88429 | 29 ft | 5 kts | 216° |
| 2026-05-05 22:10 | 21.04719 | -86.88447 | 29 ft | 4 kts | 216° |
| 2026-05-05 22:10 | 21.04700 | -86.88461 | 29 ft | 3 kts | 213° |
| 2026-05-05 22:11 | 21.04683 | -86.88472 | 29 ft | 4 kts | 213° |
| 2026-05-05 22:11 | 21.04652 | -86.88493 | 29 ft | 7 kts | 212° |
| 2026-05-05 22:11 | 21.04604 | -86.88526 | 29 ft | 10 kts | 212° |
| 2026-05-05 22:11 | 21.04539 | -86.88570 | 29 ft | 12 kts | 214° |
| 2026-05-05 22:12 | 21.04466 | -86.88624 | 30 ft | 13 kts | 218° |
| 2026-05-05 22:12 | 21.04480 | -86.88702 | 31 ft | 11 kts | 305° |
| 2026-05-05 22:12 | 21.04524 | -86.88770 | 30 ft | 11 kts | 304° |
| 2026-05-05 22:12 | 21.04565 | -86.88835 | 30 ft | 10 kts | 303° |
| 2026-05-05 22:13 | 21.04603 | -86.88896 | 30 ft | 10 kts | 303° |
| 2026-05-05 22:13 | 21.04638 | -86.88954 | 30 ft | 9 kts | 301° |
| 2026-05-05 22:13 | 21.04631 | -86.89011 | 31 ft | 7 kts | 222° |
| 2026-05-05 22:13 | 21.04592 | -86.89041 | 31 ft | 8 kts | 214° |
| 2026-05-05 22:14 | 21.04553 | -86.89069 | 32 ft | 6 kts | 214° |
| 2026-05-05 22:14 | 21.04524 | -86.89081 | 32 ft | 2 kts | 144° |
| 2026-05-05 22:14 | 21.04519 | -86.89074 | 32 ft | 0 kts | 126° |
| 2026-05-05 22:14 | 21.04506 | -86.89054 | 32 ft | 24 kts | 125° |
| 2026-05-05 22:15 | 21.04254 | -86.88655 | 35 ft | 100 kts | 123° |
| 2026-05-05 22:15 | 21.03755 | -86.87855 | 39 ft | 156 kts | 124° |
| 2026-05-05 22:15 | 21.03142 | -86.86875 | 694 ft | 156 kts | 126° |
| 2026-05-05 22:15 | 21.02530 | -86.85912 | 1475 ft | 156 kts | 126° |
| 2026-05-05 22:16 | 21.01919 | -86.84937 | 2137 ft | 167 kts | 124° |
| 2026-05-05 22:16 | 21.01227 | -86.83833 | 2522 ft | 190 kts | 125° |
| 2026-05-05 22:16 | 21.00506 | -86.82537 | 2896 ft | 216 kts | 118° |
| 2026-05-05 22:16 | 20.99777 | -86.81022 | 3376 ft | 240 kts | 117° |
| 2026-05-05 22:17 | 20.98985 | -86.79361 | 4022 ft | 257 kts | 117° |
| 2026-05-05 22:17 | 20.98162 | -86.77631 | 4891 ft | 264 kts | 117° |
| 2026-05-05 22:17 | 20.97317 | -86.75855 | 5762 ft | 270 kts | 117° |
| 2026-05-05 22:17 | 20.96460 | -86.74040 | 6647 ft | 276 kts | 114° |
| 2026-05-05 22:18 | 20.96031 | -86.72032 | 7437 ft | 282 kts | 89° |
| 2026-05-05 22:18 | 20.96320 | -86.69961 | 8251 ft | 288 kts | 78° |
| 2026-05-05 22:18 | 20.96726 | -86.67847 | 9094 ft | 293 kts | 77° |
| 2026-05-05 22:18 | 20.97143 | -86.65678 | 9919 ft | 299 kts | 77° |
| 2026-05-05 22:19 | 20.97572 | -86.63442 | 10367 ft | 318 kts | 77° |
| 2026-05-05 22:19 | 20.98033 | -86.61021 | 10630 ft | 342 kts | 77° |
| 2026-05-05 22:19 | 20.98680 | -86.58494 | 10827 ft | 364 kts | 69° |
| 2026-05-05 22:19 | 20.99581 | -86.55907 | 10953 ft | 387 kts | 68° |
| 2026-05-05 22:20 | 21.00546 | -86.53147 | 11296 ft | 399 kts | 68° |
| 2026-05-05 22:20 | 21.01525 | -86.50342 | 11868 ft | 405 kts | 68° |
| 2026-05-05 22:20 | 21.02512 | -86.47503 | 12473 ft | 409 kts | 68° |
| 2026-05-05 22:20 | 21.03506 | -86.44632 | 13082 ft | 412 kts | 68° |
| 2026-05-05 22:21 | 21.04509 | -86.41736 | 13667 ft | 416 kts | 68° |
| 2026-05-05 22:21 | 21.05513 | -86.38844 | 14188 ft | 420 kts | 68° |
| 2026-05-05 22:21 | 21.06537 | -86.35889 | 14736 ft | 423 kts | 68° |
| 2026-05-05 22:21 | 21.07563 | -86.32932 | 15249 ft | 426 kts | 68° |
| 2026-05-05 22:22 | 21.08602 | -86.29941 | 15757 ft | 429 kts | 68° |
| 2026-05-05 22:22 | 21.09647 | -86.26934 | 16246 ft | 432 kts | 68° |
| 2026-05-05 22:22 | 21.10683 | -86.23939 | 16728 ft | 435 kts | 68° |
| 2026-05-05 22:22 | 21.11735 | -86.20888 | 17191 ft | 438 kts | 68° |
| 2026-05-05 22:23 | 21.12803 | -86.17793 | 17651 ft | 441 kts | 68° |
| 2026-05-05 22:23 | 21.13857 | -86.14739 | 18091 ft | 444 kts | 68° |
| 2026-05-05 22:23 | 21.14930 | -86.11628 | 18482 ft | 446 kts | 68° |
| 2026-05-05 22:23 | 21.16012 | -86.08498 | 18840 ft | 449 kts | 67° |
| 2026-05-05 22:24 | 21.17098 | -86.05347 | 19181 ft | 452 kts | 67° |
| 2026-05-05 22:24 | 21.18195 | -86.02158 | 19513 ft | 455 kts | 67° |
| 2026-05-05 22:24 | 21.19251 | -85.98988 | 19858 ft | 459 kts | 71° |
| 2026-05-05 22:24 | 21.19984 | -85.95647 | 20191 ft | 463 kts | 76° |
| 2026-05-05 22:25 | 21.20624 | -85.92247 | 20501 ft | 466 kts | 76° |
| 2026-05-05 22:25 | 21.21272 | -85.88818 | 20810 ft | 469 kts | 76° |
| 2026-05-05 22:25 | 21.21924 | -85.85381 | 21118 ft | 472 kts | 76° |
| 2026-05-05 22:25 | 21.22580 | -85.81913 | 21415 ft | 474 kts | 76° |
| 2026-05-05 22:26 | 21.23239 | -85.78442 | 21702 ft | 477 kts | 76° |
| 2026-05-05 22:26 | 21.23896 | -85.74986 | 21985 ft | 479 kts | 76° |
| 2026-05-05 22:26 | 21.24565 | -85.71463 | 22249 ft | 482 kts | 76° |
| 2026-05-05 22:26 | 21.25231 | -85.67936 | 22515 ft | 484 kts | 76° |
| 2026-05-05 22:27 | 21.25996 | -85.64424 | 22765 ft | 484 kts | 70° |
| 2026-05-05 22:27 | 21.27212 | -85.61057 | 22995 ft | 483 kts | 61° |
| 2026-05-05 22:27 | 21.28874 | -85.57929 | 23241 ft | 482 kts | 53° |
| 2026-05-05 22:27 | 21.30730 | -85.54922 | 23482 ft | 484 kts | 53° |
| 2026-05-05 22:28 | 21.32566 | -85.51940 | 23680 ft | 486 kts | 53° |
| 2026-05-05 22:28 | 21.34429 | -85.48907 | 23874 ft | 487 kts | 53° |
| 2026-05-05 22:28 | 21.36301 | -85.45856 | 24072 ft | 489 kts | 53° |
| 2026-05-05 22:28 | 21.38170 | -85.42809 | 24274 ft | 490 kts | 53° |
| 2026-05-05 22:29 | 21.40059 | -85.39728 | 24466 ft | 491 kts | 53° |
| 2026-05-05 22:29 | 21.41935 | -85.36663 | 24659 ft | 492 kts | 53° |
| 2026-05-05 22:29 | 21.43796 | -85.33621 | 24840 ft | 493 kts | 53° |
| 2026-05-05 22:29 | 21.45689 | -85.30526 | 25019 ft | 494 kts | 53° |
| 2026-05-05 22:30 | 21.47576 | -85.27444 | 25183 ft | 495 kts | 53° |
| 2026-05-05 22:30 | 21.49471 | -85.24351 | 25333 ft | 496 kts | 53° |
| 2026-05-05 22:30 | 21.51373 | -85.21239 | 25471 ft | 497 kts | 53° |
| 2026-05-05 22:30 | 21.53244 | -85.18177 | 25603 ft | 498 kts | 53° |
| 2026-05-05 22:31 | 21.55147 | -85.15062 | 25724 ft | 498 kts | 53° |
| 2026-05-05 22:31 | 21.57054 | -85.11938 | 25839 ft | 499 kts | 53° |
| 2026-05-05 22:31 | 21.58968 | -85.08797 | 25956 ft | 500 kts | 53° |
| 2026-05-05 22:31 | 21.60847 | -85.05709 | 26070 ft | 500 kts | 53° |
| 2026-05-05 22:32 | 21.62755 | -85.02576 | 26189 ft | 500 kts | 53° |
| 2026-05-05 22:32 | 21.64661 | -84.99440 | 26320 ft | 500 kts | 53° |
| 2026-05-05 22:32 | 21.66566 | -84.96302 | 26455 ft | 500 kts | 53° |
| 2026-05-05 22:32 | 21.68460 | -84.93177 | 26611 ft | 499 kts | 53° |
| 2026-05-05 22:33 | 21.70367 | -84.90037 | 26745 ft | 499 kts | 53° |
| 2026-05-05 22:33 | 21.72236 | -84.86966 | 26889 ft | 498 kts | 53° |
| 2026-05-05 22:33 | 21.74140 | -84.83838 | 27066 ft | 497 kts | 53° |
| 2026-05-05 22:33 | 21.76032 | -84.80731 | 27227 ft | 497 kts | 53° |
| 2026-05-05 22:34 | 21.77928 | -84.77608 | 27401 ft | 496 kts | 53° |
| 2026-05-05 22:34 | 21.79815 | -84.74491 | 27570 ft | 496 kts | 53° |
| 2026-05-05 22:34 | 21.81685 | -84.71370 | 27756 ft | 496 kts | 53° |
| 2026-05-05 22:34 | 21.83514 | -84.68272 | 27945 ft | 495 kts | 53° |
| 2026-05-05 22:35 | 21.85353 | -84.65131 | 28145 ft | 494 kts | 53° |
| 2026-05-05 22:35 | 21.87204 | -84.61996 | 28347 ft | 493 kts | 53° |
| 2026-05-05 22:35 | 21.89057 | -84.58938 | 28553 ft | 492 kts | 52° |
| 2026-05-05 22:35 | 21.90950 | -84.55874 | 28783 ft | 491 kts | 52° |
| 2026-05-05 22:36 | 21.92857 | -84.52814 | 28997 ft | 490 kts | 52° |
| 2026-05-05 22:36 | 21.94749 | -84.49777 | 29226 ft | 489 kts | 52° |
| 2026-05-05 22:36 | 21.96640 | -84.46730 | 29469 ft | 488 kts | 52° |
| 2026-05-05 22:36 | 21.98522 | -84.43681 | 29717 ft | 487 kts | 52° |
| 2026-05-05 22:37 | 22.00396 | -84.40627 | 29962 ft | 486 kts | 52° |
| 2026-05-05 22:37 | 22.02237 | -84.37617 | 30190 ft | 485 kts | 52° |
| 2026-05-05 22:37 | 22.04094 | -84.34586 | 30396 ft | 485 kts | 52° |
| 2026-05-05 22:37 | 22.05958 | -84.31544 | 30599 ft | 485 kts | 52° |
| 2026-05-05 22:38 | 22.07812 | -84.28514 | 30794 ft | 485 kts | 52° |
| 2026-05-05 22:38 | 22.09672 | -84.25469 | 31000 ft | 485 kts | 52° |
| 2026-05-05 22:38 | 22.11524 | -84.22436 | 31209 ft | 484 kts | 52° |
| 2026-05-05 22:38 | 22.13383 | -84.19393 | 31429 ft | 484 kts | 52° |
| 2026-05-05 22:39 | 22.15213 | -84.16401 | 31653 ft | 484 kts | 52° |
| 2026-05-05 22:39 | 22.17067 | -84.13365 | 31876 ft | 484 kts | 52° |
| 2026-05-05 22:39 | 22.18919 | -84.10330 | 32095 ft | 484 kts | 52° |
| 2026-05-05 22:39 | 22.20771 | -84.07294 | 32324 ft | 484 kts | 51° |
| 2026-05-05 22:40 | 22.22615 | -84.04270 | 32555 ft | 484 kts | 51° |
| 2026-05-05 22:40 | 22.24468 | -84.01225 | 32781 ft | 484 kts | 51° |
| 2026-05-05 22:40 | 22.26320 | -83.98186 | 33007 ft | 483 kts | 51° |
| 2026-05-05 22:40 | 22.28171 | -83.95150 | 33251 ft | 483 kts | 51° |
| 2026-05-05 22:41 | 22.29999 | -83.92151 | 33492 ft | 483 kts | 51° |
| 2026-05-05 22:41 | 22.31853 | -83.89104 | 33736 ft | 483 kts | 51° |
| 2026-05-05 22:41 | 22.33701 | -83.86064 | 33971 ft | 483 kts | 51° |
| 2026-05-05 22:41 | 22.35531 | -83.83044 | 34180 ft | 484 kts | 51° |
| 2026-05-05 22:42 | 22.37375 | -83.79997 | 34376 ft | 484 kts | 51° |
| 2026-05-05 22:42 | 22.39218 | -83.76954 | 34559 ft | 485 kts | 51° |
| 2026-05-05 22:42 | 22.41076 | -83.73890 | 34754 ft | 486 kts | 51° |
| 2026-05-05 22:42 | 22.42932 | -83.70827 | 34939 ft | 487 kts | 51° |
| 2026-05-05 22:43 | 22.44792 | -83.67759 | 35004 ft | 488 kts | 51° |
| 2026-05-05 22:43 | 22.48496 | -83.61644 | 35008 ft | 489 kts | 51° |
| 2026-05-05 22:44 | 22.52227 | -83.55469 | 35006 ft | 489 kts | 51° |
| 2026-05-05 22:44 | 22.55944 | -83.49303 | 34416 ft | 487 kts | 51° |
| 2026-05-05 22:44 | 22.57768 | -83.46271 | 33487 ft | 487 kts | 52° |
| 2026-05-05 22:45 | 22.59624 | -83.43187 | 32481 ft | 485 kts | 52° |
| 2026-05-05 22:45 | 22.61454 | -83.40144 | 30914 ft | 482 kts | 52° |
| 2026-05-05 22:45 | 22.63300 | -83.37082 | 29020 ft | 485 kts | 52° |
| 2026-05-05 22:45 | 22.65149 | -83.34017 | 26915 ft | 490 kts | 52° |
| 2026-05-05 22:46 | 22.66388 | -83.31964 | 25546 ft | 493 kts | 52° |
| 2026-05-05 22:46 | 22.68270 | -83.28842 | 23652 ft | 496 kts | 53° |
| 2026-05-05 22:46 | 22.69896 | -83.25551 | 21863 ft | 497 kts | 65° |
| 2026-05-05 22:46 | 22.71150 | -83.20812 | 19909 ft | 486 kts | 75° |
| 2026-05-05 22:47 | 22.71640 | -83.18456 | 19009 ft | 480 kts | 75° |
| 2026-05-05 22:47 | 22.72597 | -83.13855 | 17856 ft | 453 kts | 76° |
| 2026-05-05 22:47 | 22.73047 | -83.11693 | 17618 ft | 433 kts | 75° |
| 2026-05-05 22:47 | 22.73687 | -83.08624 | 17428 ft | 402 kts | 75° |
| 2026-05-05 22:48 | 22.74286 | -83.05765 | 17296 ft | 375 kts | 75° |
| 2026-05-05 22:48 | 22.74922 | -83.03105 | 16948 ft | 357 kts | 72° |
| 2026-05-05 22:48 | 22.75625 | -83.00546 | 16354 ft | 350 kts | 71° |
| 2026-05-05 22:48 | 22.76356 | -82.98058 | 15746 ft | 344 kts | 70° |
| 2026-05-05 22:49 | 22.77081 | -82.95630 | 15142 ft | 340 kts | 70° |
| 2026-05-05 22:49 | 22.77798 | -82.93198 | 14539 ft | 337 kts | 71° |
| 2026-05-05 22:49 | 22.78491 | -82.90792 | 13956 ft | 333 kts | 72° |
| 2026-05-05 22:49 | 22.79154 | -82.88443 | 13742 ft | 315 kts | 72° |
| 2026-05-05 22:50 | 22.79776 | -82.86203 | 13318 ft | 307 kts | 72° |
| 2026-05-05 22:50 | 22.80387 | -82.84002 | 12796 ft | 303 kts | 72° |
| 2026-05-05 22:50 | 22.80990 | -82.81839 | 12008 ft | 308 kts | 72° |
| 2026-05-05 22:50 | 22.81622 | -82.79585 | 11006 ft | 319 kts | 72° |
| 2026-05-05 22:51 | 22.82269 | -82.77281 | 10217 ft | 321 kts | 72° |
| 2026-05-05 22:51 | 22.82922 | -82.74939 | 9114 ft | 329 kts | 72° |
| 2026-05-05 22:51 | 22.83582 | -82.72559 | 8169 ft | 329 kts | 72° |
| 2026-05-05 22:51 | 22.84235 | -82.70201 | 7334 ft | 324 kts | 73° |
| 2026-05-05 22:52 | 22.84884 | -82.67866 | 6528 ft | 320 kts | 73° |
| 2026-05-05 22:52 | 22.85513 | -82.65602 | 5698 ft | 315 kts | 73° |
| 2026-05-05 22:52 | 22.86142 | -82.63340 | 4863 ft | 311 kts | 73° |
| 2026-05-05 22:52 | 22.86745 | -82.61171 | 4632 ft | 286 kts | 73° |
| 2026-05-05 22:53 | 22.87290 | -82.59203 | 4504 ft | 260 kts | 73° |
| 2026-05-05 22:53 | 22.87758 | -82.57393 | 4380 ft | 241 kts | 82° |
| 2026-05-05 22:53 | 22.87670 | -82.55645 | 4255 ft | 227 kts | 109° |
| 2026-05-05 22:53 | 22.86961 | -82.54199 | 4027 ft | 218 kts | 134° |
| 2026-05-05 22:54 | 22.85763 | -82.53197 | 3569 ft | 220 kts | 158° |
| 2026-05-05 22:54 | 22.84283 | -82.52832 | 3200 ft | 219 kts | 182° |
| 2026-05-05 22:54 | 22.82808 | -82.53153 | 2890 ft | 216 kts | 205° |
| 2026-05-05 22:54 | 22.81589 | -82.54085 | 2578 ft | 215 kts | 228° |
| 2026-05-05 22:55 | 22.80829 | -82.55443 | 2252 ft | 215 kts | 249° |
| 2026-05-05 22:55 | 22.80349 | -82.56976 | 2021 ft | 213 kts | 253° |
| 2026-05-05 22:55 | 22.79925 | -82.58533 | 2003 ft | 216 kts | 253° |
| 2026-05-05 22:55 | 22.79748 | -82.60140 | 1991 ft | 217 kts | 279° |
| 2026-05-05 22:56 | 22.80311 | -82.61648 | 2003 ft | 219 kts | 304° |
| 2026-05-05 22:56 | 22.81401 | -82.62799 | 2005 ft | 221 kts | 327° |
| 2026-05-05 22:56 | 22.82825 | -82.63412 | 2009 ft | 222 kts | 351° |
| 2026-05-05 22:56 | 22.84364 | -82.63340 | 2003 ft | 223 kts | 15° |
| 2026-05-05 22:57 | 22.85730 | -82.62580 | 1998 ft | 223 kts | 41° |
| 2026-05-05 22:57 | 22.86662 | -82.61303 | 1998 ft | 212 kts | 65° |
| 2026-05-05 22:57 | 22.87172 | -82.59815 | 2007 ft | 211 kts | 73° |
| 2026-05-05 22:57 | 22.87597 | -82.58309 | 2013 ft | 211 kts | 73° |
| 2026-05-05 22:58 | 22.88265 | -82.56901 | 2012 ft | 211 kts | 55° |
| 2026-05-05 22:58 | 22.89128 | -82.55614 | 2003 ft | 211 kts | 54° |
| 2026-05-05 22:58 | 22.89997 | -82.54325 | 2009 ft | 211 kts | 54° |
| 2026-05-05 22:58 | 22.90834 | -82.53072 | 2002 ft | 200 kts | 54° |
| 2026-05-05 22:59 | 22.91623 | -82.51886 | 2042 ft | 185 kts | 54° |
| 2026-05-05 22:59 | 22.92343 | -82.50804 | 1970 ft | 168 kts | 54° |
| 2026-05-05 22:59 | 22.92987 | -82.49835 | 1835 ft | 151 kts | 54° |
| 2026-05-05 22:59 | 22.93584 | -82.48937 | 1660 ft | 143 kts | 54° |
| 2026-05-05 23:00 | 22.94719 | -82.47229 | 1298 ft | 138 kts | 53° |
| 2026-05-05 23:00 | 22.95279 | -82.46387 | 1120 ft | 137 kts | 53° |
| 2026-05-05 23:00 | 22.95835 | -82.45550 | 944 ft | 136 kts | 52° |
| 2026-05-05 23:01 | 22.96382 | -82.44724 | 761 ft | 134 kts | 53° |
| 2026-05-05 23:01 | 22.96924 | -82.43904 | 596 ft | 133 kts | 52° |
| 2026-05-05 23:01 | 22.97461 | -82.43105 | 390 ft | 130 kts | 51° |
| 2026-05-05 23:01 | 22.97991 | -82.42298 | 263 ft | 131 kts | 51° |
| 2026-05-05 23:02 | 22.98516 | -82.41527 | 221 ft | 116 kts | 55° |
| 2026-05-05 23:02 | 22.98886 | -82.40958 | 218 ft | 76 kts | 54° |
| 2026-05-05 23:02 | 22.99164 | -82.40539 | 221 ft | 61 kts | 54° |
| 2026-05-05 23:02 | 22.99389 | -82.40203 | 219 ft | 50 kts | 54° |
| 2026-05-05 23:03 | 22.99579 | -82.39917 | 223 ft | 44 kts | 54° |
| 2026-05-05 23:03 | 22.99749 | -82.39662 | 221 ft | 40 kts | 55° |
| 2026-05-05 23:03 | 22.99902 | -82.39428 | 218 ft | 30 kts | 54° |
| 2026-05-05 23:03 | 22.99989 | -82.39361 | 223 ft | 16 kts | 351° |
| 2026-05-05 23:04 | 23.00055 | -82.39402 | 219 ft | 10 kts | 324° |
| 2026-05-05 23:04 | 23.00071 | -82.39474 | 219 ft | 10 kts | 258° |
| 2026-05-05 23:04 | 23.00036 | -82.39537 | 221 ft | 9 kts | 237° |
| 2026-05-05 23:04 | 23.00000 | -82.39593 | 224 ft | 9 kts | 235° |
| 2026-05-05 23:05 | 22.99974 | -82.39648 | 221 ft | 7 kts | 274° |
| 2026-05-05 23:05 | 23.00007 | -82.39683 | 219 ft | 7 kts | 323° |
| 2026-05-05 23:05 | 23.00047 | -82.39714 | 222 ft | 8 kts | 323° |
| 2026-05-05 23:05 | 23.00096 | -82.39719 | 219 ft | 8 kts | 36° |
| 2026-05-05 23:06 | 23.00119 | -82.39687 | 219 ft | 0 kts | 53° |
| 2026-05-05 23:06 | 23.00119 | -82.39686 | 219 ft | 0 kts | 53° |